Terminal Aerodrome Forecast
Issued by NWS

Home | Current Version | Previous Version | Text Only | Print | Product List | Glossary On
Versions: 1 2 3 4 5 6 7 8 9 10 11 12 13 14 15 16 17 18 19 20 21
652
FTUS43 KICT 251608 AAB
TAFSLN
TAF AMD
KSLN 251608Z 2516/2612 06006KT P6SM VCSH SCT010 BKN100
      TEMPO 2516/2517 BKN010
     FM251800 06008KT P6SM FEW030 SCT150
     FM260000 10007KT P6SM FEW200=

USA.gov is the U.S. government's official web portal to all federal, state and local government web resources and services.